This is the latest recevied weather packets stored in our database for station/object SR8WXE. If no packets are shown the sender has not sent any weather packets the latest 10 day(s).
| Time | Temp. | Humidity | Pressure | Rain* | Wind** | Luminosity | Snow |
|---|---|---|---|---|---|---|---|
| 1778168613 | 15.56° C | 74% | 1011.7 hPa | 0 mm | - | - | - |
| 1778168612 | 15.56° C | 74% | 1011.7 hPa | 0 mm | - | - | - |
| 1778168312 | 16.11° C | 70% | 1011.7 hPa | 0 mm | - | - | - |
| 1778168127 | 16.67° C | 68% | 1011.6 hPa | 0 mm | - | - | - |
| 1778168011 | 16.67° C | 68% | 1011.6 hPa | 0 mm | - | - | - |
| 1778167874 | 16.67° C | - | - | 0 mm | - | - | - |
| 1778167711 | 16.67° C | 66% | 1011.5 hPa | 0 mm | - | - | - |
| 1778167411 | 17.22° C | 64% | 1011.7 hPa | 0 mm | - | - | - |
| 1778167348 | 17.22° C | 61% | 1011.6 hPa | 0 mm | - | - | - |
| 1778167111 | 17.22° C | 61% | 1011.6 hPa | 0 mm | - | - | - |
| 1778166810 | 17.78° C | 60% | 1011.5 hPa | 0 mm | - | - | - |
| 1778166510 | 17.78° C | 59% | 1011.6 hPa | 0 mm | - | - | - |
| 1778166210 | 17.78° C | 59% | 1011.4 hPa | 0 mm | - | - | - |
| 1778165909 | 17.78° C | 58% | 1011.4 hPa | 0 mm | - | - | - |
| 1778165609 | 17.78° C | 57% | 1011.4 hPa | 0 mm | - | - | - |
| 1778165309 | 17.78° C | 56% | 1011.4 hPa | 0 mm | - | - | - |
| 1778165009 | 18.33° C | 55% | 1011.3 hPa | 0 mm | - | - | - |
| 1778164708 | 18.33° C | 54% | 1011.3 hPa | 0 mm | - | - | - |
| 1778164408 | 18.89° C | 53% | 1011.3 hPa | 0 mm | - | - | - |
| 1778164108 | 18.89° C | 54% | 1011.3 hPa | 0 mm | - | - | - |
| 1778163808 | 20° C | 52% | 1011.1 hPa | 0 mm | - | - | - |
| 1778163507 | 20.56° C | 47% | 1011 hPa | 0 mm | - | - | - |
| 1778163207 | 20.56° C | 46% | 1010.8 hPa | 0 mm | - | - | - |
| 1778162907 | 20.56° C | 47% | 1010.8 hPa | 0 mm | - | - | - |
| 1778162606 | 20.56° C | 46% | 1010.7 hPa | 0 mm | - | - | - |
* Rain latest hour (hover to see other rain measurements)
** Current wind speed in m/s (hover to see current wind gust speed)